sensor_id;sensor_type;location;lat;lon;timestamp;pressure;altitude;pressure_sealevel;temperature;humidity
48204;BME280;33994;50.998;5.864;2022-11-30T00:00:33;101731.44;;;6.80;97.76
48204;BME280;33994;50.998;5.864;2022-11-30T00:03:18;101728.00;;;6.81;97.85
48204;BME280;33994;50.998;5.864;2022-11-30T00:06:05;101724.53;;;6.82;97.98
48204;BME280;33994;50.998;5.864;2022-11-30T00:08:53;101716.72;;;6.82;98.00
48204;BME280;33994;50.998;5.864;2022-11-30T00:11:40;101723.69;;;6.83;97.87
48204;BME280;33994;50.998;5.864;2022-11-30T00:14:25;101724.59;;;6.85;97.83
48204;BME280;33994;50.998;5.864;2022-11-30T00:17:11;101725.44;;;6.84;97.47
48204;BME280;33994;50.998;5.864;2022-11-30T00:19:57;101721.16;;;6.86;97.69
48204;BME280;33994;50.998;5.864;2022-11-30T00:22:43;101721.22;;;6.92;97.31
48204;BME280;33994;50.998;5.864;2022-11-30T00:25:30;101719.47;;;6.91;97.39
48204;BME280;33994;50.998;5.864;2022-11-30T00:28:15;101717.75;;;6.90;97.51
48204;BME280;33994;50.998;5.864;2022-11-30T00:31:02;101718.63;;;6.91;97.88
48204;BME280;33994;50.998;5.864;2022-11-30T00:33:48;101707.34;;;6.90;98.17
48204;BME280;33994;50.998;5.864;2022-11-30T00:36:34;101718.56;;;6.88;98.42
48204;BME280;33994;50.998;5.864;2022-11-30T00:39:19;101714.16;;;6.84;98.89
48204;BME280;33994;50.998;5.864;2022-11-30T00:42:06;101714.13;;;6.79;99.55
48204;BME280;33994;50.998;5.864;2022-11-30T00:44:52;101714.91;;;6.75;100.00
48204;BME280;33994;50.998;5.864;2022-11-30T00:47:37;101714.06;;;6.76;100.00
48204;BME280;33994;50.998;5.864;2022-11-30T00:50:23;101712.31;;;6.75;100.00
48204;BME280;33994;50.998;5.864;2022-11-30T00:53:08;101711.41;;;6.73;100.00
48204;BME280;33994;50.998;5.864;2022-11-30T00:55:54;101719.22;;;6.73;100.00
48204;BME280;33994;50.998;5.864;2022-11-30T00:58:41;101723.53;;;6.71;100.00
48204;BME280;33994;50.998;5.864;2022-11-30T01:01:27;101716.50;;;6.67;100.00
48204;BME280;33994;50.998;5.864;2022-11-30T01:04:13;101725.16;;;6.64;100.00
48204;BME280;33994;50.998;5.864;2022-11-30T01:06:58;101725.97;;;6.62;100.00
48204;BME280;33994;50.998;5.864;2022-11-30T01:09:44;101724.28;;;6.64;100.00
48204;BME280;33994;50.998;5.864;2022-11-30T01:12:29;101736.41;;;6.63;100.00
48204;BME280;33994;50.998;5.864;2022-11-30T01:15:17;101737.22;;;6.61;100.00
48204;BME280;33994;50.998;5.864;2022-11-30T01:18:02;101735.47;;;6.60;100.00
48204;BME280;33994;50.998;5.864;2022-11-30T01:20:48;101740.69;;;6.63;100.00
48204;BME280;33994;50.998;5.864;2022-11-30T01:23:33;101733.75;;;6.62;100.00
48204;BME280;33994;50.998;5.864;2022-11-30T01:26:20;101738.16;;;6.66;100.00
48204;BME280;33994;50.998;5.864;2022-11-30T01:29:06;101743.34;;;6.66;100.00
48204;BME280;33994;50.998;5.864;2022-11-30T01:31:53;101738.09;;;6.63;100.00
48204;BME280;33994;50.998;5.864;2022-11-30T01:34:39;101745.03;;;6.61;100.00
48204;BME280;33994;50.998;5.864;2022-11-30T01:37:27;101749.34;;;6.60;100.00
48204;BME280;33994;50.998;5.864;2022-11-30T01:40:13;101744.97;;;6.57;100.00
48204;BME280;33994;50.998;5.864;2022-11-30T01:42:59;101746.69;;;6.57;100.00
48204;BME280;33994;50.998;5.864;2022-11-30T01:45:46;101743.22;;;6.56;100.00
48204;BME280;33994;50.998;5.864;2022-11-30T01:48:34;101743.19;;;6.55;100.00
48204;BME280;33994;50.998;5.864;2022-11-30T01:51:20;101748.38;;;6.53;100.00
48204;BME280;33994;50.998;5.864;2022-11-30T01:54:08;101744.03;;;6.54;100.00
48204;BME280;33994;50.998;5.864;2022-11-30T01:56:56;101747.50;;;6.54;100.00
48204;BME280;33994;50.998;5.864;2022-11-30T01:59:44;101744.91;;;6.54;100.00
48204;BME280;33994;50.998;5.864;2022-11-30T02:02:36;101758.78;;;6.55;100.00
48204;BME280;33994;50.998;5.864;2022-11-30T02:05:27;101751.81;;;6.52;100.00
48204;BME280;33994;50.998;5.864;2022-11-30T02:08:13;101750.91;;;6.49;100.00
48204;BME280;33994;50.998;5.864;2022-11-30T02:11:01;101749.16;;;6.49;100.00
48204;BME280;33994;50.998;5.864;2022-11-30T02:13:57;101759.56;;;6.48;100.00
48204;BME280;33994;50.998;5.864;2022-11-30T02:16:52;101751.75;;;6.49;100.00
48204;BME280;33994;50.998;5.864;2022-11-30T02:20:14;101749.09;;;6.46;100.00
48204;BME280;33994;50.998;5.864;2022-11-30T02:23:24;101758.66;;;6.47;100.00
48204;BME280;33994;50.998;5.864;2022-11-30T02:26:25;101753.50;;;6.49;100.00
48204;BME280;33994;50.998;5.864;2022-11-30T02:29:19;101755.28;;;6.53;100.00
48204;BME280;33994;50.998;5.864;2022-11-30T02:32:10;101755.25;;;6.51;100.00
48204;BME280;33994;50.998;5.864;2022-11-30T02:35:00;101753.50;;;6.49;100.00
48204;BME280;33994;50.998;5.864;2022-11-30T02:37:48;101756.97;;;6.49;100.00
48204;BME280;33994;50.998;5.864;2022-11-30T02:40:35;101753.50;;;6.49;100.00
48204;BME280;33994;50.998;5.864;2022-11-30T02:43:23;101753.50;;;6.50;100.00
48204;BME280;33994;50.998;5.864;2022-11-30T02:46:16;101751.75;;;6.49;100.00
48204;BME280;33994;50.998;5.864;2022-11-30T02:49:07;101750.03;;;6.50;100.00
48204;BME280;33994;50.998;5.864;2022-11-30T02:51:57;101745.75;;;6.53;100.00
48204;BME280;33994;50.998;5.864;2022-11-30T02:54:44;101744.91;;;6.54;100.00
48204;BME280;33994;50.998;5.864;2022-11-30T02:57:30;101747.50;;;6.53;100.00
48204;BME280;33994;50.998;5.864;2022-11-30T03:00:17;101738.78;;;6.51;100.00
48204;BME280;33994;50.998;5.864;2022-11-30T03:03:04;101743.16;;;6.53;100.00
48204;BME280;33994;50.998;5.864;2022-11-30T03:05:50;101747.50;;;6.53;100.00
48204;BME280;33994;50.998;5.864;2022-11-30T03:08:35;101752.75;;;6.57;100.00
48204;BME280;33994;50.998;5.864;2022-11-30T03:11:21;101744.97;;;6.57;100.00
48204;BME280;33994;50.998;5.864;2022-11-30T03:14:07;101749.31;;;6.58;100.00
48204;BME280;33994;50.998;5.864;2022-11-30T03:16:52;101753.69;;;6.60;100.00
48204;BME280;33994;50.998;5.864;2022-11-30T03:19:39;101748.41;;;6.56;100.00
48204;BME280;33994;50.998;5.864;2022-11-30T03:22:25;101745.84;;;6.58;100.00
48204;BME280;33994;50.998;5.864;2022-11-30T03:25:10;101753.69;;;6.60;100.00
48204;BME280;33994;50.998;5.864;2022-11-30T03:27:56;101752.78;;;6.59;100.00
48204;BME280;33994;50.998;5.864;2022-11-30T03:30:47;101756.19;;;6.55;100.00
48204;BME280;33994;50.998;5.864;2022-11-30T03:33:32;101748.41;;;6.56;100.00
48204;BME280;33994;50.998;5.864;2022-11-30T03:36:20;101749.34;;;6.60;100.00
48204;BME280;33994;50.998;5.864;2022-11-30T03:39:05;101754.56;;;6.62;100.00
48204;BME280;33994;50.998;5.864;2022-11-30T03:41:52;101757.16;;;6.62;100.00
48204;BME280;33994;50.998;5.864;2022-11-30T03:44:37;101762.34;;;6.62;100.00
48204;BME280;33994;50.998;5.864;2022-11-30T03:47:23;101760.63;;;6.61;100.00
48204;BME280;33994;50.998;5.864;2022-11-30T03:50:09;101756.22;;;6.58;100.00
48204;BME280;33994;50.998;5.864;2022-11-30T03:52:56;101756.22;;;6.58;100.00
48204;BME280;33994;50.998;5.864;2022-11-30T03:55:41;101754.50;;;6.57;100.00
48204;BME280;33994;50.998;5.864;2022-11-30T03:58:28;101755.38;;;6.57;100.00
48204;BME280;33994;50.998;5.864;2022-11-30T04:01:16;101757.97;;;6.57;100.00
48204;BME280;33994;50.998;5.864;2022-11-30T04:04:02;101758.81;;;6.58;100.00
48204;BME280;33994;50.998;5.864;2022-11-30T04:06:48;101758.81;;;6.58;100.00
48204;BME280;33994;50.998;5.864;2022-11-30T04:09:35;101757.06;;;6.55;100.00
48204;BME280;33994;50.998;5.864;2022-11-30T04:12:20;101754.47;;;6.55;100.00
48204;BME280;33994;50.998;5.864;2022-11-30T04:15:07;101757.94;;;6.56;100.00
48204;BME280;33994;50.998;5.864;2022-11-30T04:17:52;101757.88;;;6.53;100.00
48204;BME280;33994;50.998;5.864;2022-11-30T04:20:38;101763.97;;;6.53;100.00
48204;BME280;33994;50.998;5.864;2022-11-30T04:23:24;101766.56;;;6.55;100.00
48204;BME280;33994;50.998;5.864;2022-11-30T04:26:13;101763.09;;;6.54;100.00
48204;BME280;33994;50.998;5.864;2022-11-30T04:28:59;101759.69;;;6.55;100.00
48204;BME280;33994;50.998;5.864;2022-11-30T04:31:45;101762.28;;;6.55;100.00
48204;BME280;33994;50.998;5.864;2022-11-30T04:34:30;101769.22;;;6.56;100.00
48204;BME280;33994;50.998;5.864;2022-11-30T04:37:16;101759.69;;;6.57;100.00
48204;BME280;33994;50.998;5.864;2022-11-30T04:40:03;101763.16;;;6.56;100.00
48204;BME280;33994;50.998;5.864;2022-11-30T04:42:50;101764.00;;;6.56;100.00
48204;BME280;33994;50.998;5.864;2022-11-30T04:45:35;101763.16;;;6.57;100.00
48204;BME280;33994;50.998;5.864;2022-11-30T04:48:21;101770.13;;;6.60;100.00
48204;BME280;33994;50.998;5.864;2022-11-30T04:51:07;101771.00;;;6.61;100.00
48204;BME280;33994;50.998;5.864;2022-11-30T04:53:53;101774.47;;;6.61;100.00
48204;BME280;33994;50.998;5.864;2022-11-30T04:56:38;101775.41;;;6.63;100.00
48204;BME280;33994;50.998;5.864;2022-11-30T04:59:25;101778.00;;;6.65;100.00
48204;BME280;33994;50.998;5.864;2022-11-30T05:02:11;101780.59;;;6.63;100.00
48204;BME280;33994;50.998;5.864;2022-11-30T05:04:56;101778.88;;;6.64;100.00
48204;BME280;33994;50.998;5.864;2022-11-30T05:07:42;101781.47;;;6.64;100.00
48204;BME280;33994;50.998;5.864;2022-11-30T05:10:28;101778.00;;;6.63;100.00
48204;BME280;33994;50.998;5.864;2022-11-30T05:13:16;101784.00;;;6.61;100.00
48204;BME280;33994;50.998;5.864;2022-11-30T05:16:04;101781.41;;;6.62;100.00
48204;BME280;33994;50.998;5.864;2022-11-30T05:18:49;101782.28;;;6.60;100.00
48204;BME280;33994;50.998;5.864;2022-11-30T05:21:34;101775.41;;;6.63;100.00
48204;BME280;33994;50.998;5.864;2022-11-30T05:24:20;101780.59;;;6.65;100.00
48204;BME280;33994;50.998;5.864;2022-11-30T05:27:06;101789.28;;;6.65;100.00
48204;BME280;33994;50.998;5.864;2022-11-30T05:29:52;101791.03;;;6.66;100.00
48204;BME280;33994;50.998;5.864;2022-11-30T05:32:38;101785.81;;;6.66;100.00
48204;BME280;33994;50.998;5.864;2022-11-30T05:35:24;101782.34;;;6.66;100.00
48204;BME280;33994;50.998;5.864;2022-11-30T05:38:09;101781.50;;;6.67;100.00
48204;BME280;33994;50.998;5.864;2022-11-30T05:40:58;101789.28;;;6.65;100.00
48204;BME280;33994;50.998;5.864;2022-11-30T05:43:44;101790.16;;;6.66;100.00
48204;BME280;33994;50.998;5.864;2022-11-30T05:46:31;101786.66;;;6.64;100.00
48204;BME280;33994;50.998;5.864;2022-11-30T05:49:18;101794.47;;;6.64;100.00
48204;BME280;33994;50.998;5.864;2022-11-30T05:52:04;101791.81;;;6.62;100.00
48204;BME280;33994;50.998;5.864;2022-11-30T05:54:49;101793.59;;;6.65;100.00
48204;BME280;33994;50.998;5.864;2022-11-30T05:57:35;101800.50;;;6.63;100.00
48204;BME280;33994;50.998;5.864;2022-11-30T06:00:22;101808.28;;;6.63;100.00
48204;BME280;33994;50.998;5.864;2022-11-30T06:03:07;101803.94;;;6.62;100.00
48204;BME280;33994;50.998;5.864;2022-11-30T06:05:55;101807.41;;;6.61;100.00
48204;BME280;33994;50.998;5.864;2022-11-30T06:08:41;101812.59;;;6.61;100.00
48204;BME280;33994;50.998;5.864;2022-11-30T06:11:27;101810.88;;;6.60;100.00
48204;BME280;33994;50.998;5.864;2022-11-30T06:14:12;101810.88;;;6.60;100.00
48204;BME280;33994;50.998;5.864;2022-11-30T06:16:58;101813.41;;;6.58;100.00
48204;BME280;33994;50.998;5.864;2022-11-30T06:19:44;101823.81;;;6.56;100.00
48204;BME280;33994;50.998;5.864;2022-11-30T06:22:31;101819.47;;;6.55;100.00
48204;BME280;33994;50.998;5.864;2022-11-30T06:25:17;101821.16;;;6.55;100.00
48204;BME280;33994;50.998;5.864;2022-11-30T06:28:02;101817.69;;;6.54;100.00
48204;BME280;33994;50.998;5.864;2022-11-30T06:30:48;101815.06;;;6.53;100.00
48204;BME280;33994;50.998;5.864;2022-11-30T06:33:34;101815.03;;;6.51;100.00
48204;BME280;33994;50.998;5.864;2022-11-30T06:36:20;101817.63;;;6.51;100.00
48204;BME280;33994;50.998;5.864;2022-11-30T06:39:09;101821.03;;;6.47;100.00
48204;BME280;33994;50.998;5.864;2022-11-30T06:41:55;101827.13;;;6.48;100.00
48204;BME280;33994;50.998;5.864;2022-11-30T06:44:40;101833.19;;;6.48;100.00
48204;BME280;33994;50.998;5.864;2022-11-30T06:47:26;101826.19;;;6.46;100.00
48204;BME280;33994;50.998;5.864;2022-11-30T06:50:12;101825.34;;;6.45;100.00
48204;BME280;33994;50.998;5.864;2022-11-30T06:52:58;101828.78;;;6.44;100.00
48204;BME280;33994;50.998;5.864;2022-11-30T06:55:45;101828.78;;;6.44;100.00
48204;BME280;33994;50.998;5.864;2022-11-30T06:58:31;101824.41;;;6.43;100.00
48204;BME280;33994;50.998;5.864;2022-11-30T07:01:17;101836.53;;;6.41;100.00
48204;BME280;33994;50.998;5.864;2022-11-30T07:04:03;101828.69;;;6.40;100.00
48204;BME280;33994;50.998;5.864;2022-11-30T07:06:49;101833.06;;;6.41;100.00
48204;BME280;33994;50.998;5.864;2022-11-30T07:09:35;101839.13;;;6.41;100.00
48204;BME280;33994;50.998;5.864;2022-11-30T07:12:22;101836.47;;;6.38;100.00
48204;BME280;33994;50.998;5.864;2022-11-30T07:15:09;101845.03;;;6.34;100.00
48204;BME280;33994;50.998;5.864;2022-11-30T07:17:54;101838.94;;;6.32;100.00
48204;BME280;33994;50.998;5.864;2022-11-30T07:20:40;101851.13;;;6.36;100.00
48204;BME280;33994;50.998;5.864;2022-11-30T07:23:26;101843.34;;;6.36;100.00
48204;BME280;33994;50.998;5.864;2022-11-30T07:26:29;101855.50;;;6.37;100.00
48204;BME280;33994;50.998;5.864;2022-11-30T07:29:16;101851.19;;;6.38;100.00
48204;BME280;33994;50.998;5.864;2022-11-30T07:32:02;101857.19;;;6.35;100.00
48204;BME280;33994;50.998;5.864;2022-11-30T07:34:48;101862.38;;;6.35;100.00
48204;BME280;33994;50.998;5.864;2022-11-30T07:37:34;101863.16;;;6.31;100.00
48204;BME280;33994;50.998;5.864;2022-11-30T07:40:19;101865.78;;;6.31;100.00
48204;BME280;33994;50.998;5.864;2022-11-30T07:43:05;101864.09;;;6.33;100.00
48204;BME280;33994;50.998;5.864;2022-11-30T07:45:52;101880.47;;;6.30;100.00
48204;BME280;33994;50.998;5.864;2022-11-30T07:48:37;101870.06;;;6.29;100.00
48204;BME280;33994;50.998;5.864;2022-11-30T07:51:23;101880.50;;;6.32;100.00
48204;BME280;33994;50.998;5.864;2022-11-30T07:54:09;101883.97;;;6.32;100.00
48204;BME280;33994;50.998;5.864;2022-11-30T07:56:54;101876.16;;;6.31;100.00
48204;BME280;33994;50.998;5.864;2022-11-30T07:59:40;101883.06;;;6.29;100.00
48204;BME280;33994;50.998;5.864;2022-11-30T08:02:27;101887.44;;;6.31;100.00
48204;BME280;33994;50.998;5.864;2022-11-30T08:05:12;101886.56;;;6.31;100.00
48204;BME280;33994;50.998;5.864;2022-11-30T08:07:58;101880.47;;;6.30;100.00
48204;BME280;33994;50.998;5.864;2022-11-30T08:10:44;101889.16;;;6.31;100.00
48204;BME280;33994;50.998;5.864;2022-11-30T08:13:30;101881.34;;;6.31;100.00
48204;BME280;33994;50.998;5.864;2022-11-30T08:16:17;101898.66;;;6.29;100.00
48204;BME280;33994;50.998;5.864;2022-11-30T08:19:05;101901.19;;;6.27;100.00
48204;BME280;33994;50.998;5.864;2022-11-30T08:21:50;101903.00;;;6.30;100.00
48204;BME280;33994;50.998;5.864;2022-11-30T08:24:36;101900.41;;;6.30;100.00
48204;BME280;33994;50.998;5.864;2022-11-30T08:27:21;101908.22;;;6.31;100.00
48204;BME280;33994;50.998;5.864;2022-11-30T08:30:08;101907.34;;;6.31;100.00
48204;BME280;33994;50.998;5.864;2022-11-30T08:32:53;101912.50;;;6.29;100.00
48204;BME280;33994;50.998;5.864;2022-11-30T08:35:40;101915.13;;;6.29;100.00
48204;BME280;33994;50.998;5.864;2022-11-30T08:38:26;101922.06;;;6.30;100.00
48204;BME280;33994;50.998;5.864;2022-11-30T08:41:13;101917.72;;;6.31;100.00
48204;BME280;33994;50.998;5.864;2022-11-30T08:43:59;101928.13;;;6.31;100.00
48204;BME280;33994;50.998;5.864;2022-11-30T08:46:45;101915.19;;;6.34;100.00
48204;BME280;33994;50.998;5.864;2022-11-30T08:49:31;101917.75;;;6.32;100.00
48204;BME280;33994;50.998;5.864;2022-11-30T08:52:17;101919.47;;;6.30;100.00
48204;BME280;33994;50.998;5.864;2022-11-30T08:55:03;101915.13;;;6.29;100.00
48204;BME280;33994;50.998;5.864;2022-11-30T08:57:49;101918.53;;;6.27;100.00
48204;BME280;33994;50.998;5.864;2022-11-30T09:00:35;101927.16;;;6.26;100.00
48204;BME280;33994;50.998;5.864;2022-11-30T09:03:20;101925.38;;;6.25;100.00
48204;BME280;33994;50.998;5.864;2022-11-30T09:06:08;101918.50;;;6.25;100.00
48204;BME280;33994;50.998;5.864;2022-11-30T09:08:57;101925.38;;;6.25;100.00
48204;BME280;33994;50.998;5.864;2022-11-30T09:11:43;101927.06;;;6.21;100.00
48204;BME280;33994;50.998;5.864;2022-11-30T09:14:28;101936.56;;;6.21;100.00
48204;BME280;33994;50.998;5.864;2022-11-30T09:17:14;101928.78;;;6.21;100.00
48204;BME280;33994;50.998;5.864;2022-11-30T09:20:00;101940.81;;;6.17;100.00
48204;BME280;33994;50.998;5.864;2022-11-30T09:22:45;101935.59;;;6.14;100.00
48204;BME280;33994;50.998;5.864;2022-11-30T09:25:32;101936.38;;;6.12;100.00
48204;BME280;33994;50.998;5.864;2022-11-30T09:28:18;101939.84;;;6.11;100.00
48204;BME280;33994;50.998;5.864;2022-11-30T09:31:05;101945.84;;;6.09;100.00
48204;BME280;33994;50.998;5.864;2022-11-30T09:33:53;101943.16;;;6.05;100.00
48204;BME280;33994;50.998;5.864;2022-11-30T09:36:39;101946.63;;;6.04;100.00
48204;BME280;33994;50.998;5.864;2022-11-30T09:39:25;101948.34;;;6.03;100.00
48204;BME280;33994;50.998;5.864;2022-11-30T09:42:23;101942.34;;;6.06;100.00
48204;BME280;33994;50.998;5.864;2022-11-30T09:45:14;101943.16;;;6.05;100.00
48204;BME280;33994;50.998;5.864;2022-11-30T09:48:16;101947.53;;;6.06;100.00
48204;BME280;33994;50.998;5.864;2022-11-30T09:51:16;101950.09;;;6.04;100.00
48204;BME280;33994;50.998;5.864;2022-11-30T09:54:05;101950.09;;;6.04;100.00
48204;BME280;33994;50.998;5.864;2022-11-30T09:56:56;101953.47;;;6.00;100.00
48204;BME280;33994;50.998;5.864;2022-11-30T09:59:47;101950.00;;;6.00;100.00
48204;BME280;33994;50.998;5.864;2022-11-30T10:02:36;101948.19;;;5.97;100.00
48204;BME280;33994;50.998;5.864;2022-11-30T10:05:25;101949.81;;;5.92;100.00
48204;BME280;33994;50.998;5.864;2022-11-30T10:08:28;101942.03;;;5.92;100.00
48204;BME280;33994;50.998;5.864;2022-11-30T10:11:26;101946.38;;;5.93;100.00
48204;BME280;33994;50.998;5.864;2022-11-30T10:14:26;101935.13;;;5.93;100.00
48204;BME280;33994;50.998;5.864;2022-11-30T10:17:28;101940.31;;;5.93;100.00
48204;BME280;33994;50.998;5.864;2022-11-30T10:20:39;101936.94;;;5.97;100.00
48204;BME280;33994;50.998;5.864;2022-11-30T10:23:42;101939.59;;;5.98;100.00
48204;BME280;33994;50.998;5.864;2022-11-30T10:26:32;101936.94;;;5.97;100.00
48204;BME280;33994;50.998;5.864;2022-11-30T10:29:26;101946.44;;;5.96;100.00
48204;BME280;33994;50.998;5.864;2022-11-30T10:32:20;101932.59;;;5.97;100.00
48204;BME280;33994;50.998;5.864;2022-11-30T10:35:16;101934.38;;;5.98;100.00
48204;BME280;33994;50.998;5.864;2022-11-30T10:38:10;101937.84;;;5.99;100.00
48204;BME280;33994;50.998;5.864;2022-11-30T10:41:01;101937.00;;;5.98;100.00
48204;BME280;33994;50.998;5.864;2022-11-30T10:43:52;101931.78;;;5.98;100.00
48204;BME280;33994;50.998;5.864;2022-11-30T10:46:51;101927.50;;;6.00;100.00
48204;BME280;33994;50.998;5.864;2022-11-30T10:49:47;101931.13;;;6.08;100.00
48204;BME280;33994;50.998;5.864;2022-11-30T10:52:39;101922.53;;;6.13;100.00
48204;BME280;33994;50.998;5.864;2022-11-30T10:55:28;101925.19;;;6.14;100.00
48204;BME280;33994;50.998;5.864;2022-11-30T10:58:19;101923.56;;;6.19;100.00
48204;BME280;33994;50.998;5.864;2022-11-30T11:01:07;101923.53;;;6.18;100.00
48204;BME280;33994;50.998;5.864;2022-11-30T11:04:06;101921.81;;;6.18;100.00
48204;BME280;33994;50.998;5.864;2022-11-30T11:06:53;101914.09;;;6.23;99.74
48204;BME280;33994;50.998;5.864;2022-11-30T11:09:41;101915.91;;;6.27;99.80
48204;BME280;33994;50.998;5.864;2022-11-30T11:12:29;101916.00;;;6.30;99.47
48204;BME280;33994;50.998;5.864;2022-11-30T11:15:20;101914.34;;;6.35;99.03
48204;BME280;33994;50.998;5.864;2022-11-30T11:18:21;101913.50;;;6.36;98.69
48204;BME280;33994;50.998;5.864;2022-11-30T11:21:16;101912.66;;;6.37;97.76
48204;BME280;33994;50.998;5.864;2022-11-30T11:24:07;101907.50;;;6.40;97.48
48204;BME280;33994;50.998;5.864;2022-11-30T11:26:55;101923.16;;;6.43;97.26
48204;BME280;33994;50.998;5.864;2022-11-30T11:29:41;101924.94;;;6.44;97.13
48204;BME280;33994;50.998;5.864;2022-11-30T11:32:27;101914.63;;;6.49;96.96
48204;BME280;33994;50.998;5.864;2022-11-30T11:35:32;101917.31;;;6.53;97.01
48204;BME280;33994;50.998;5.864;2022-11-30T11:38:20;101920.03;;;6.60;96.67
48204;BME280;33994;50.998;5.864;2022-11-30T11:41:20;101919.19;;;6.62;95.99
48204;BME280;33994;50.998;5.864;2022-11-30T11:44:18;101911.44;;;6.64;95.59
48204;BME280;33994;50.998;5.864;2022-11-30T11:47:06;101912.34;;;6.66;95.82
48204;BME280;33994;50.998;5.864;2022-11-30T11:50:04;101916.75;;;6.70;95.89
48204;BME280;33994;50.998;5.864;2022-11-30T11:53:16;101916.75;;;6.70;96.05
48204;BME280;33994;50.998;5.864;2022-11-30T11:56:12;101908.19;;;6.77;95.92
48204;BME280;33994;50.998;5.864;2022-11-30T11:59:06;101912.53;;;6.78;95.89
48204;BME280;33994;50.998;5.864;2022-11-30T12:02:01;101908.25;;;6.80;95.76
48204;BME280;33994;50.998;5.864;2022-11-30T12:04:51;101915.16;;;6.78;96.21
48204;BME280;33994;50.998;5.864;2022-11-30T12:07:42;101903.94;;;6.82;95.54
48204;BME280;33994;50.998;5.864;2022-11-30T12:10:34;101900.53;;;6.83;95.45
48204;BME280;33994;50.998;5.864;2022-11-30T12:13:25;101902.28;;;6.86;94.96
48204;BME280;33994;50.998;5.864;2022-11-30T12:16:34;101899.72;;;6.87;94.59
48204;BME280;33994;50.998;5.864;2022-11-30T12:19:29;101900.66;;;6.91;94.58
48204;BME280;33994;50.998;5.864;2022-11-30T12:22:31;101903.31;;;6.94;94.36
48204;BME280;33994;50.998;5.864;2022-11-30T12:25:24;101900.75;;;6.97;94.41
48204;BME280;33994;50.998;5.864;2022-11-30T12:28:18;101902.59;;;7.02;94.14
48204;BME280;33994;50.998;5.864;2022-11-30T12:31:12;101905.19;;;7.02;93.32
48204;BME280;33994;50.998;5.864;2022-11-30T12:34:08;101893.06;;;7.04;93.31
48204;BME280;33994;50.998;5.864;2022-11-30T12:37:03;101894.78;;;7.02;93.84
48204;BME280;33994;50.998;5.864;2022-11-30T12:39:57;101899.94;;;7.01;94.03
48204;BME280;33994;50.998;5.864;2022-11-30T12:42:52;101908.66;;;7.01;93.59
48204;BME280;33994;50.998;5.864;2022-11-30T12:45:42;101908.66;;;7.01;93.78
48204;BME280;33994;50.998;5.864;2022-11-30T12:48:33;101909.47;;;6.99;94.02
48204;BME280;33994;50.998;5.864;2022-11-30T12:51:26;101905.91;;;6.94;94.16
48204;BME280;33994;50.998;5.864;2022-11-30T12:54:19;101908.47;;;6.92;94.27
48204;BME280;33994;50.998;5.864;2022-11-30T12:57:13;101911.06;;;6.92;94.62
48204;BME280;33994;50.998;5.864;2022-11-30T13:00:05;101905.78;;;6.86;94.84
48204;BME280;33994;50.998;5.864;2022-11-30T13:03:22;101906.66;;;6.88;94.88
48204;BME280;33994;50.998;5.864;2022-11-30T13:06:19;101909.28;;;6.88;94.94
48204;BME280;33994;50.998;5.864;2022-11-30T13:09:14;101908.38;;;6.86;95.10
48204;BME280;33994;50.998;5.864;2022-11-30T13:12:05;101910.13;;;6.87;95.28
48204;BME280;33994;50.998;5.864;2022-11-30T13:14:57;101904.16;;;6.93;95.56
48204;BME280;33994;50.998;5.864;2022-11-30T13:17:44;101904.16;;;6.93;95.51
48204;BME280;33994;50.998;5.864;2022-11-30T13:20:36;101898.06;;;6.92;95.84
48204;BME280;33994;50.998;5.864;2022-11-30T13:23:33;101898.00;;;6.89;95.66
48204;BME280;33994;50.998;5.864;2022-11-30T13:26:26;101896.31;;;6.91;95.49
48204;BME280;33994;50.998;5.864;2022-11-30T13:29:25;101903.22;;;6.89;95.29
48204;BME280;33994;50.998;5.864;2022-11-30T13:32:14;101909.28;;;6.90;95.09
48204;BME280;33994;50.998;5.864;2022-11-30T13:38:23;101911.81;;;6.85;94.63
48204;BME280;33994;50.998;5.864;2022-11-30T13:41:18;101907.34;;;6.78;94.38
48204;BME280;33994;50.998;5.864;2022-11-30T13:44:04;101906.41;;;6.73;94.46
48204;BME280;33994;50.998;5.864;2022-11-30T13:47:00;101908.06;;;6.68;94.48
48204;BME280;33994;50.998;5.864;2022-11-30T13:49:53;101908.91;;;6.68;94.95
48204;BME280;33994;50.998;5.864;2022-11-30T13:53:17;101907.13;;;6.66;94.16
48204;BME280;33994;50.998;5.864;2022-11-30T13:59:34;101922.81;;;6.70;93.08
48204;BME280;33994;50.998;5.864;2022-11-30T14:02:55;101919.28;;;6.67;92.58
48204;BME280;33994;50.998;5.864;2022-11-30T14:05:42;101913.34;;;6.74;92.54
48204;BME280;33994;50.998;5.864;2022-11-30T14:08:36;101922.88;;;6.73;92.40
48204;BME280;33994;50.998;5.864;2022-11-30T14:11:40;101921.97;;;6.71;92.28
48204;BME280;33994;50.998;5.864;2022-11-30T14:14:47;101923.72;;;6.71;91.83
48204;BME280;33994;50.998;5.864;2022-11-30T14:17:33;101928.84;;;6.68;90.89
48204;BME280;33994;50.998;5.864;2022-11-30T14:20:20;101926.25;;;6.68;91.01
48204;BME280;33994;50.998;5.864;2022-11-30T14:23:11;101931.38;;;6.65;90.35
48204;BME280;33994;50.998;5.864;2022-11-30T14:26:02;101932.97;;;6.58;90.51
48204;BME280;33994;50.998;5.864;2022-11-30T14:28:52;101944.16;;;6.52;90.05
48204;BME280;33994;50.998;5.864;2022-11-30T14:31:50;101931.94;;;6.48;90.30
48204;BME280;33994;50.998;5.864;2022-11-30T14:34:40;101937.22;;;6.53;90.16
48204;BME280;33994;50.998;5.864;2022-11-30T14:37:29;101936.44;;;6.55;89.95
48204;BME280;33994;50.998;5.864;2022-11-30T14:40:18;101935.50;;;6.53;89.79
48204;BME280;33994;50.998;5.864;2022-11-30T14:43:05;101935.44;;;6.50;89.33
48204;BME280;33994;50.998;5.864;2022-11-30T14:45:56;101937.94;;;6.46;89.59
48204;BME280;33994;50.998;5.864;2022-11-30T14:48:43;101933.50;;;6.40;89.84
48204;BME280;33994;50.998;5.864;2022-11-30T14:51:29;101942.22;;;6.42;90.17
48204;BME280;33994;50.998;5.864;2022-11-30T14:54:36;101937.72;;;6.35;89.92